• Join FlightAware (Why Join?)
  • Login
  • US Flag 
11:36AM EDT


 

Airport Tracker/Info


-or-


 

Live Flight TrackerFlight Track Log ✈ SKW4822 ✈ 07-Apr-2013 ✈ KMSP - KMOT

Flight Track Log - Related Links

Times and Time Zones

All times are in EDT time to prevent confusion due to time zone crossing. See the SKW4822 flight status page for this flight to view local times or setup timezone preferences in your user account.

Time Position Orientation Groundspeed Altitude Reporting Facility
EDT Latitude Longitude Course Direction KTS MPH feet Rate Location/Type
04:11PM 44.8767 -93.1772 103° East 151 174 1,700  Level FAA TRACON SMA TRACON (SMA)
04:11PM 44.8736 -93.1583 103° East 159 183 2,200 1,320 Climbing FAA TRACON SMA TRACON (SMA)
04:12PM 44.8697 -93.1361 104° East 180 207 2,600 2,220 Climbing FAA TRACON SMA TRACON (SMA)
04:12PM 44.8694 -93.1053 91° East 207 238 3,700 2,520 Climbing FAA TRACON SMA TRACON (SMA)
04:12PM 44.8786 -93.0831 60° Northeast 219 252 4,300 1,920 Climbing FAA TRACON SMA TRACON (SMA)
04:13PM 44.9011 -93.0683 25° Northeast 238 274 5,000 2,100 Climbing FAA TRACON SMA TRACON (SMA)
04:13PM 44.9214 -93.0706 356° North 241 277 5,700 2,220 Climbing FAA TRACON SMA TRACON (SMA)
04:13PM 44.9428 -93.0725 356° North 246 283 6,500 2,520 Climbing FAA TRACON SMA TRACON (SMA)
04:14PM 44.9706 -93.0764 354° North 259 298 7,400 2,520 Climbing FAA TRACON SMA TRACON (SMA)
04:14PM 44.9936 -93.0786 356° North 266 306 8,200 2,400 Climbing FAA TRACON SMA TRACON (SMA)
04:14PM 45.0169 -93.0817 355° North 273 314 9,000 2,820 Climbing FAA TRACON SMA TRACON (SMA)
04:15PM 45.0428 -93.0978 336° Northwest 271 312 10,100 2,700 Climbing FAA TRACON SMA TRACON (SMA)
04:15PM 45.0619 -93.1169 325° Northwest 271 312 10,800 2,400 Climbing FAA TRACON SMA TRACON (SMA)
04:15PM 45.0808 -93.1469 312° West 272 313 11,700 2,400 Climbing FAA TRACON SMA TRACON (SMA)
04:16PM 45.0919 -93.1756 299° West 272 313 12,400 1,920 Climbing FAA TRACON SMA TRACON (SMA)
04:16PM 45.1022 -93.2053 296° West 272 313 13,000 2,040 Climbing FAA TRACON SMA TRACON (SMA)
04:16PM 45.1156 -93.2428 297° West 277 319 13,800 2,160 Climbing FAA TRACON SMA TRACON (SMA)
04:17PM 45.1264 -93.2733 297° West 281 323 14,500 1,920 Climbing FAA TRACON SMA TRACON (SMA)
04:17PM 45.1383 -93.3033 299° West 284 327 15,100 2,100 Climbing FAA TRACON SMA TRACON (SMA)
04:17PM 45.1525 -93.3419 297° West 288 331 15,900 2,100 Climbing FAA TRACON SMA TRACON (SMA)
04:18PM 45.1639 -93.3733 297° West 291 335 16,500 1,500 Climbing FAA TRACON SMA TRACON (SMA)
04:18PM 45.1756 -93.4050 298° West 294 338 16,900 600 Climbing FAA TRACON SMA TRACON (SMA)
04:18PM 45.1897 -93.4439 297° West 292 336 16,900 300 Level FAA TRACON SMA TRACON (SMA)
04:19PM 45.2128 -93.5069 297° West 293 337 17,200 840 Climbing FAA TRACON SMA TRACON (SMA)
04:19PM 45.2281 -93.5469 298° West 298 343 17,800 1,800 Climbing FAA TRACON SMA TRACON (SMA)
04:20PM 45.2403 -93.5781 299° West 299 344 18,400 1,500 Climbing FAA TRACON SMA TRACON (SMA)
04:20PM 45.2519 -93.6125 296° West 306 352 18,800 1,020 Climbing FAA TRACON SMA TRACON (SMA)
04:20PM 45.2681 -93.6544 299° West 315 362 19,100 1,020 Climbing FAA TRACON SMA TRACON (SMA)
04:21PM 45.2806 -93.6908 296° West 325 374 19,500 1,200 Climbing FAA TRACON SMA TRACON (SMA)
04:21PM 45.2942 -93.7253 299° West 328 377 19,900 1,320 Climbing FAA TRACON SMA TRACON (SMA)
04:21PM 45.3103 -93.7711 297° West 337 388 20,400 1,320 Climbing FAA TRACON SMA TRACON (SMA)
04:22PM 45.3236 -93.8075 298° West 338 389 20,800 1,140 Climbing FAA TRACON SMA TRACON (SMA)
04:22PM 45.3378 -93.8433 299° West 339 390 21,200 1,260 Climbing FAA TRACON SMA TRACON (SMA)
04:22PM 45.3544 -93.8900 297° West 342 394 21,700 1,500 Climbing FAA TRACON SMA TRACON (SMA)
04:23PM 45.3689 -93.9253 300° West 342 394 22,200 1,320 Climbing FAA TRACON SMA TRACON (SMA)
04:23PM 45.3825 -93.9628 297° West 344 396 22,600 1,320 Climbing FAA TRACON SMA TRACON (SMA)
04:23PM 45.4000 -94.0078 299° West 341 392 23,100 1,500 Climbing FAA TRACON SMA TRACON (SMA)
04:24PM 45.4131 -94.0456 296° West 343 395 23,600 1,320 Climbing FAA TRACON SMA TRACON (SMA)
04:24PM 45.4267 -94.0822 298° West 342 394 24,000 1,320 Climbing FAA TRACON SMA TRACON (SMA)
04:24PM 45.4436 -94.1283 298° West 342 394 24,500 1,500 Climbing FAA TRACON SMA TRACON (SMA)
04:25PM 45.4594 -94.1628 303° West 341 392 25,000 1,380 Climbing FAA TRACON SMA TRACON (SMA)
04:25PM 45.4728 -94.2000 297° West 339 390 25,400 1,320 Climbing FAA TRACON SMA TRACON (SMA)
04:25PM 45.4903 -94.2444 299° West 338 389 25,900 1,320 Climbing FAA TRACON SMA TRACON (SMA)
04:26PM 45.5039 -94.2808 298° West 337 388 26,300 1,200 Climbing FAA TRACON SMA TRACON (SMA)
04:26PM 45.5183 -94.3156 301° West 336 387 26,700 1,140 Climbing FAA TRACON SMA TRACON (SMA)
04:27PM 45.5747 -94.4881 295° West 336 387 28,300 1,080 Climbing Minneapolis Center
04:28PM 45.6272 -94.5967 305° West 336 387 29,400 780 Climbing Minneapolis Center
04:29PM 45.6814 -94.7014 307° West 333 383 30,000 240 Climbing Minneapolis Center
04:30PM 45.7372 -94.8103 306° West 339 390 30,000  Level Minneapolis Center
04:31PM 45.7967 -94.9256 307° West 356 410 30,000  Level Minneapolis Center
04:32PM 45.8442 -95.0181 306° West 361 415 30,000  Level Minneapolis Center
04:33PM 45.9258 -95.1789 306° West 368 423 30,000  Level Minneapolis Center
04:34PM 45.9881 -95.2983 307° West 372 428 30,000  Level Minneapolis Center
04:36PM 46.0461 -95.4158 305° West 367 422 30,000  Level Minneapolis Center
04:37PM 46.1047 -95.5319 306° West 362 417 30,000  Level Minneapolis Center
04:38PM 46.1758 -95.6706 307° West 360 414 30,000  Level Minneapolis Center
04:39PM 46.2344 -95.7894 306° West 363 418 30,000  Level Minneapolis Center
04:40PM 46.2911 -95.9094 304° West 379 436 30,000  Level Minneapolis Center
04:41PM 46.3517 -96.0308 306° West 376 433 30,000  Level Minneapolis Center
04:42PM 46.4117 -96.1525 306° West 373 429 30,000  Level Minneapolis Center
04:43PM 46.4708 -96.2744 305° West 371 427 30,000  Level Minneapolis Center
04:44PM 46.5414 -96.4200 305° West 369 425 30,000  Level Minneapolis Center
04:45PM 46.6017 -96.5408 306° West 369 425 30,000  Level Minneapolis Center
04:46PM 46.6603 -96.6639 305° West 371 427 30,000  Level Minneapolis Center
04:47PM 46.7208 -96.7875 306° West 375 432 30,000  Level Minneapolis Center
04:48PM 46.7778 -96.9150 303° West 375 432 30,000  Level Minneapolis Center
04:49PM 46.8258 -97.0481 298° West 374 430 30,000  Level Minneapolis Center
04:50PM 46.8739 -97.1819 298° West 373 429 30,000  Level Minneapolis Center
04:51PM 46.9328 -97.3419 298° West 374 430 30,000  Level Minneapolis Center
04:52PM 46.9808 -97.4728 298° West 367 422 30,000  Level Minneapolis Center
04:53PM 47.0294 -97.6044 298° West 367 422 30,000  Level Minneapolis Center
04:54PM 47.0761 -97.7347 298° West 363 418 30,000  Level Minneapolis Center
04:55PM 47.1217 -97.8644 297° West 358 412 30,000  Level Minneapolis Center
04:56PM 47.1683 -97.9947 298° West 358 412 30,000  Level Minneapolis Center
04:57PM 47.2150 -98.1269 297° West 361 415 30,000  Level Minneapolis Center
04:58PM 47.2611 -98.2597 297° West 363 418 30,000  Level Minneapolis Center
04:59PM 47.3094 -98.3953 298° West 367 422 30,000  Level Minneapolis Center
05:00PM 47.3669 -98.5631 297° West 377 434 30,000  Level Minneapolis Center
05:01PM 47.4150 -98.7031 297° West 380 437 30,000 -300 Level Minneapolis Center
05:02PM 47.4625 -98.8411 297° West 379 436 29,400 -900 Descending Minneapolis Center
05:03PM 47.5089 -98.9758 297° West 374 430 28,200 -1,140 Descending Minneapolis Center
05:04PM 47.5506 -99.1022 296° West 354 407 27,100 -1,140 Descending Minneapolis Center
05:05PM 47.5931 -99.2233 298° West 347 399 25,900 -1,200 Descending Minneapolis Center
05:06PM 47.6317 -99.3389 296° West 322 371 24,700 -1,200 Descending Minneapolis Center
05:07PM 47.6708 -99.4572 296° West 320 368 23,500 -1,320 Descending Minneapolis Center
05:08PM 47.7161 -99.5925 296° West 311 358 22,100 -1,320 Descending Minneapolis Center
05:09PM 47.7522 -99.7033 296° West 303 349 20,800 -1,260 Descending Minneapolis Center
05:10PM 47.7897 -99.8125 297° West 299 344 19,600 -1,260 Descending Minneapolis Center
05:12PM 47.8253 -99.9242 295° West 298 343 18,300 -1,500 Descending Minneapolis Center
05:13PM 47.8608 -100.0344 296° West 297 342 16,600 -1,620 Descending Minneapolis Center
05:14PM 47.8958 -100.1347 298° West 288 331 15,100 -1,500 Descending Minneapolis Center
05:15PM 47.9297 -100.2333 297° West 277 319 13,600 -1,500 Descending Minneapolis Center
05:16PM 47.9617 -100.3364 295° West 274 315 12,100 -1,620 Descending Minneapolis Center
05:17PM 48.0064 -100.4553 299° West 274 315 10,300 -1,620 Descending Minneapolis Center
05:18PM 48.0533 -100.5422 309° West 270 311 8,800 -1,200 Descending Minneapolis Center
05:19PM 48.0969 -100.6158 312° West 268 308 7,900 -900 Descending Minneapolis Center
05:21PM 48.1482 -100.8247 299° West  Level Estimated
05:28PM 48.2500 -101.2667 90° East  Level FlightAware Approximate
05:29PM 48.2576 -101.2780 90° East  Level Estimated
05:30PM 48.2576 -101.2780 90° East  Level Estimated
05:31PM 48.2576 -101.2780 90° East  Level Estimated
05:32PM 48.2576 -101.2780 90° East  Level Estimated
05:33PM 48.2576 -101.2780 90° East  Level Estimated
05:34PM 48.2576 -101.2780 90° East  Level Estimated